sensor_id;sensor_type;location;lat;lon;timestamp;P1;durP1;ratioP1;P2;durP2;ratioP2
59974;SDS011;62136;-35.664;-63.766;2022-09-27T00:01:04;4.97;;;3.05;;
59974;SDS011;62136;-35.664;-63.766;2022-09-27T00:03:33;6.05;;;2.75;;
59974;SDS011;62136;-35.664;-63.766;2022-09-27T00:06:05;4.60;;;2.53;;
59974;SDS011;62136;-35.664;-63.766;2022-09-27T00:08:35;5.35;;;2.42;;
59974;SDS011;62136;-35.664;-63.766;2022-09-27T00:11:04;4.95;;;2.85;;
59974;SDS011;62136;-35.664;-63.766;2022-09-27T00:13:42;5.40;;;2.30;;
59974;SDS011;62136;-35.664;-63.766;2022-09-27T00:16:09;4.70;;;2.55;;
59974;SDS011;62136;-35.664;-63.766;2022-09-27T00:18:37;4.63;;;2.33;;
59974;SDS011;62136;-35.664;-63.766;2022-09-27T00:21:05;3.40;;;2.72;;
59974;SDS011;62136;-35.664;-63.766;2022-09-27T00:23:34;5.03;;;2.55;;
59974;SDS011;62136;-35.664;-63.766;2022-09-27T00:26:01;4.10;;;2.67;;
59974;SDS011;62136;-35.664;-63.766;2022-09-27T00:28:29;6.82;;;2.60;;
59974;SDS011;62136;-35.664;-63.766;2022-09-27T00:30:57;5.63;;;2.65;;
59974;SDS011;62136;-35.664;-63.766;2022-09-27T00:33:27;3.97;;;2.45;;
59974;SDS011;62136;-35.664;-63.766;2022-09-27T00:35:54;5.72;;;2.92;;
59974;SDS011;62136;-35.664;-63.766;2022-09-27T00:38:27;4.28;;;2.97;;
59974;SDS011;62136;-35.664;-63.766;2022-09-27T00:40:54;5.00;;;2.60;;
59974;SDS011;62136;-35.664;-63.766;2022-09-27T00:43:22;3.63;;;2.22;;
59974;SDS011;62136;-35.664;-63.766;2022-09-27T00:45:53;5.63;;;2.60;;
59974;SDS011;62136;-35.664;-63.766;2022-09-27T00:48:28;4.35;;;2.80;;
59974;SDS011;62136;-35.664;-63.766;2022-09-27T00:50:59;4.40;;;2.65;;
59974;SDS011;62136;-35.664;-63.766;2022-09-27T00:56:00;4.68;;;2.75;;
59974;SDS011;62136;-35.664;-63.766;2022-09-27T00:58:33;3.33;;;2.55;;
59974;SDS011;62136;-35.664;-63.766;2022-09-27T01:01:05;4.53;;;2.72;;
59974;SDS011;62136;-35.664;-63.766;2022-09-27T01:06:08;3.75;;;2.35;;
59974;SDS011;62136;-35.664;-63.766;2022-09-27T01:08:36;4.35;;;2.55;;
59974;SDS011;62136;-35.664;-63.766;2022-09-27T01:13:42;4.53;;;2.70;;
59974;SDS011;62136;-35.664;-63.766;2022-09-27T01:33:30;4.45;;;2.75;;
59974;SDS011;62136;-35.664;-63.766;2022-09-27T01:36:04;4.43;;;2.92;;
59974;SDS011;62136;-35.664;-63.766;2022-09-27T01:38:44;4.70;;;2.65;;
59974;SDS011;62136;-35.664;-63.766;2022-09-27T01:47:07;4.38;;;2.50;;
59974;SDS011;62136;-35.664;-63.766;2022-09-27T01:49:52;4.43;;;2.60;;
59974;SDS011;62136;-35.664;-63.766;2022-09-27T01:52:22;4.13;;;2.63;;
59974;SDS011;62136;-35.664;-63.766;2022-09-27T01:54:57;3.65;;;2.42;;
59974;SDS011;62136;-35.664;-63.766;2022-09-27T01:57:26;3.53;;;3.00;;
59974;SDS011;62136;-35.664;-63.766;2022-09-27T02:00:00;3.95;;;2.95;;
59974;SDS011;62136;-35.664;-63.766;2022-09-27T02:02:40;4.97;;;2.63;;
59974;SDS011;62136;-35.664;-63.766;2022-09-27T02:05:31;3.03;;;2.47;;
59974;SDS011;62136;-35.664;-63.766;2022-09-27T02:08:07;4.20;;;2.80;;
59974;SDS011;62136;-35.664;-63.766;2022-09-27T02:10:42;2.92;;;2.63;;
59974;SDS011;62136;-35.664;-63.766;2022-09-27T02:13:20;3.08;;;2.72;;
59974;SDS011;62136;-35.664;-63.766;2022-09-27T02:19:22;5.47;;;3.08;;
59974;SDS011;62136;-35.664;-63.766;2022-09-27T02:21:51;3.20;;;2.45;;
59974;SDS011;62136;-35.664;-63.766;2022-09-27T02:24:29;4.32;;;2.60;;
59974;SDS011;62136;-35.664;-63.766;2022-09-27T02:27:22;4.43;;;2.50;;
59974;SDS011;62136;-35.664;-63.766;2022-09-27T02:30:02;3.60;;;2.33;;
59974;SDS011;62136;-35.664;-63.766;2022-09-27T02:32:33;3.63;;;2.50;;
59974;SDS011;62136;-35.664;-63.766;2022-09-27T02:35:02;2.85;;;2.47;;
59974;SDS011;62136;-35.664;-63.766;2022-09-27T02:37:51;3.20;;;2.58;;
59974;SDS011;62136;-35.664;-63.766;2022-09-27T02:40:19;3.53;;;2.53;;
59974;SDS011;62136;-35.664;-63.766;2022-09-27T02:42:47;3.05;;;2.22;;
59974;SDS011;62136;-35.664;-63.766;2022-09-27T02:45:15;4.40;;;2.53;;
59974;SDS011;62136;-35.664;-63.766;2022-09-27T02:48:06;3.70;;;2.28;;
59974;SDS011;62136;-35.664;-63.766;2022-09-27T02:56:14;4.30;;;2.30;;
59974;SDS011;62136;-35.664;-63.766;2022-09-27T03:01:42;3.33;;;2.38;;
59974;SDS011;62136;-35.664;-63.766;2022-09-27T03:04:52;3.30;;;2.30;;
59974;SDS011;62136;-35.664;-63.766;2022-09-27T03:07:13;4.00;;;2.58;;
59974;SDS011;62136;-35.664;-63.766;2022-09-27T03:09:45;4.65;;;2.60;;
59974;SDS011;62136;-35.664;-63.766;2022-09-27T03:12:14;3.97;;;2.70;;
59974;SDS011;62136;-35.664;-63.766;2022-09-27T03:14:48;2.50;;;2.30;;
59974;SDS011;62136;-35.664;-63.766;2022-09-27T03:17:15;4.72;;;2.50;;
59974;SDS011;62136;-35.664;-63.766;2022-09-27T03:19:42;2.40;;;2.20;;
59974;SDS011;62136;-35.664;-63.766;2022-09-27T03:22:09;3.17;;;2.03;;
59974;SDS011;62136;-35.664;-63.766;2022-09-27T03:24:36;3.22;;;2.15;;
59974;SDS011;62136;-35.664;-63.766;2022-09-27T03:27:03;2.88;;;2.10;;
59974;SDS011;62136;-35.664;-63.766;2022-09-27T03:29:30;3.28;;;2.30;;
59974;SDS011;62136;-35.664;-63.766;2022-09-27T03:31:57;2.60;;;2.20;;
59974;SDS011;62136;-35.664;-63.766;2022-09-27T03:34:25;2.08;;;1.88;;
59974;SDS011;62136;-35.664;-63.766;2022-09-27T03:36:52;3.08;;;2.25;;
59974;SDS011;62136;-35.664;-63.766;2022-09-27T03:39:19;2.78;;;2.10;;
59974;SDS011;62136;-35.664;-63.766;2022-09-27T03:41:46;2.50;;;2.30;;
59974;SDS011;62136;-35.664;-63.766;2022-09-27T03:44:13;3.38;;;2.22;;
59974;SDS011;62136;-35.664;-63.766;2022-09-27T03:46:43;3.40;;;1.98;;
59974;SDS011;62136;-35.664;-63.766;2022-09-27T03:49:09;3.42;;;2.30;;
59974;SDS011;62136;-35.664;-63.766;2022-09-27T03:51:36;2.97;;;2.28;;
59974;SDS011;62136;-35.664;-63.766;2022-09-27T03:54:03;2.75;;;1.77;;
59974;SDS011;62136;-35.664;-63.766;2022-09-27T03:56:30;2.92;;;2.20;;
59974;SDS011;62136;-35.664;-63.766;2022-09-27T03:58:57;2.60;;;2.40;;
59974;SDS011;62136;-35.664;-63.766;2022-09-27T04:01:25;3.25;;;2.20;;
59974;SDS011;62136;-35.664;-63.766;2022-09-27T04:03:53;3.08;;;2.28;;
59974;SDS011;62136;-35.664;-63.766;2022-09-27T04:06:20;2.53;;;1.88;;
59974;SDS011;62136;-35.664;-63.766;2022-09-27T04:08:48;2.70;;;2.25;;
59974;SDS011;62136;-35.664;-63.766;2022-09-27T04:11:15;2.10;;;1.80;;
59974;SDS011;62136;-35.664;-63.766;2022-09-27T04:13:42;3.35;;;2.05;;
59974;SDS011;62136;-35.664;-63.766;2022-09-27T04:16:09;3.08;;;1.70;;
59974;SDS011;62136;-35.664;-63.766;2022-09-27T04:18:40;2.10;;;1.90;;
59974;SDS011;62136;-35.664;-63.766;2022-09-27T04:21:07;2.33;;;2.10;;
59974;SDS011;62136;-35.664;-63.766;2022-09-27T04:23:34;2.33;;;1.80;;
59974;SDS011;62136;-35.664;-63.766;2022-09-27T04:26:02;3.47;;;2.00;;
59974;SDS011;62136;-35.664;-63.766;2022-09-27T04:28:29;1.90;;;1.80;;
59974;SDS011;62136;-35.664;-63.766;2022-09-27T04:30:56;2.47;;;2.00;;
59974;SDS011;62136;-35.664;-63.766;2022-09-27T04:33:23;3.03;;;2.10;;
59974;SDS011;62136;-35.664;-63.766;2022-09-27T04:35:51;2.53;;;2.10;;
59974;SDS011;62136;-35.664;-63.766;2022-09-27T04:38:36;2.33;;;1.67;;
59974;SDS011;62136;-35.664;-63.766;2022-09-27T04:41:03;2.40;;;1.65;;
59974;SDS011;62136;-35.664;-63.766;2022-09-27T04:43:30;3.08;;;2.05;;
59974;SDS011;62136;-35.664;-63.766;2022-09-27T04:45:57;2.00;;;1.80;;
59974;SDS011;62136;-35.664;-63.766;2022-09-27T04:48:24;2.40;;;2.00;;
59974;SDS011;62136;-35.664;-63.766;2022-09-27T04:50:58;2.38;;;2.17;;
59974;SDS011;62136;-35.664;-63.766;2022-09-27T04:53:27;2.67;;;2.03;;
59974;SDS011;62136;-35.664;-63.766;2022-09-27T04:55:57;2.35;;;1.80;;
59974;SDS011;62136;-35.664;-63.766;2022-09-27T04:58:27;2.30;;;1.80;;
59974;SDS011;62136;-35.664;-63.766;2022-09-27T05:00:54;2.10;;;1.60;;
59974;SDS011;62136;-35.664;-63.766;2022-09-27T05:03:21;1.98;;;1.60;;
59974;SDS011;62136;-35.664;-63.766;2022-09-27T05:05:48;1.80;;;1.70;;
59974;SDS011;62136;-35.664;-63.766;2022-09-27T05:08:15;1.85;;;1.70;;
59974;SDS011;62136;-35.664;-63.766;2022-09-27T05:10:42;1.85;;;1.60;;
59974;SDS011;62136;-35.664;-63.766;2022-09-27T05:13:09;1.52;;;1.42;;
59974;SDS011;62136;-35.664;-63.766;2022-09-27T05:15:36;2.20;;;1.90;;
59974;SDS011;62136;-35.664;-63.766;2022-09-27T05:18:04;2.22;;;1.70;;
59974;SDS011;62136;-35.664;-63.766;2022-09-27T05:20:32;2.20;;;1.70;;
59974;SDS011;62136;-35.664;-63.766;2022-09-27T05:23:00;2.10;;;1.90;;
59974;SDS011;62136;-35.664;-63.766;2022-09-27T05:25:29;1.88;;;1.60;;
59974;SDS011;62136;-35.664;-63.766;2022-09-27T05:27:57;2.33;;;1.67;;
59974;SDS011;62136;-35.664;-63.766;2022-09-27T05:30:25;2.15;;;1.80;;
59974;SDS011;62136;-35.664;-63.766;2022-09-27T05:32:52;2.97;;;1.85;;
59974;SDS011;62136;-35.664;-63.766;2022-09-27T05:35:20;2.00;;;1.60;;
59974;SDS011;62136;-35.664;-63.766;2022-09-27T05:37:51;2.75;;;1.88;;
59974;SDS011;62136;-35.664;-63.766;2022-09-27T05:40:20;2.45;;;1.90;;
59974;SDS011;62136;-35.664;-63.766;2022-09-27T05:42:53;2.40;;;2.05;;
59974;SDS011;62136;-35.664;-63.766;2022-09-27T05:45:21;3.72;;;2.22;;
59974;SDS011;62136;-35.664;-63.766;2022-09-27T05:47:56;2.55;;;2.35;;
59974;SDS011;62136;-35.664;-63.766;2022-09-27T05:50:24;2.60;;;2.40;;
59974;SDS011;62136;-35.664;-63.766;2022-09-27T05:52:52;2.40;;;2.10;;
59974;SDS011;62136;-35.664;-63.766;2022-09-27T05:55:19;2.97;;;1.92;;
59974;SDS011;62136;-35.664;-63.766;2022-09-27T05:57:59;3.42;;;2.38;;
59974;SDS011;62136;-35.664;-63.766;2022-09-27T06:00:33;2.80;;;2.33;;
59974;SDS011;62136;-35.664;-63.766;2022-09-27T06:03:04;3.58;;;2.20;;
59974;SDS011;62136;-35.664;-63.766;2022-09-27T06:05:36;2.75;;;2.40;;
59974;SDS011;62136;-35.664;-63.766;2022-09-27T06:08:05;2.67;;;1.80;;
59974;SDS011;62136;-35.664;-63.766;2022-09-27T06:10:34;2.15;;;1.95;;
59974;SDS011;62136;-35.664;-63.766;2022-09-27T06:13:02;2.22;;;2.03;;
59974;SDS011;62136;-35.664;-63.766;2022-09-27T06:15:35;2.22;;;1.98;;
59974;SDS011;62136;-35.664;-63.766;2022-09-27T06:18:04;3.63;;;2.13;;
59974;SDS011;62136;-35.664;-63.766;2022-09-27T06:20:34;2.38;;;2.10;;
59974;SDS011;62136;-35.664;-63.766;2022-09-27T06:23:03;2.55;;;2.10;;
59974;SDS011;62136;-35.664;-63.766;2022-09-27T06:25:32;2.00;;;1.85;;
59974;SDS011;62136;-35.664;-63.766;2022-09-27T06:28:00;2.30;;;2.10;;
59974;SDS011;62136;-35.664;-63.766;2022-09-27T06:30:28;2.28;;;2.08;;
59974;SDS011;62136;-35.664;-63.766;2022-09-27T06:32:58;2.25;;;2.05;;
59974;SDS011;62136;-35.664;-63.766;2022-09-27T06:35:27;2.20;;;2.00;;
59974;SDS011;62136;-35.664;-63.766;2022-09-27T06:37:55;1.88;;;1.73;;
59974;SDS011;62136;-35.664;-63.766;2022-09-27T06:40:23;2.00;;;1.77;;
59974;SDS011;62136;-35.664;-63.766;2022-09-27T06:42:51;2.35;;;1.63;;
59974;SDS011;62136;-35.664;-63.766;2022-09-27T06:45:18;1.73;;;1.58;;
59974;SDS011;62136;-35.664;-63.766;2022-09-27T06:47:45;1.67;;;1.58;;
59974;SDS011;62136;-35.664;-63.766;2022-09-27T06:50:12;2.00;;;1.80;;
59974;SDS011;62136;-35.664;-63.766;2022-09-27T06:52:45;2.20;;;1.63;;
59974;SDS011;62136;-35.664;-63.766;2022-09-27T06:57:38;1.90;;;1.70;;
59974;SDS011;62136;-35.664;-63.766;2022-09-27T07:00:24;1.80;;;1.70;;
59974;SDS011;62136;-35.664;-63.766;2022-09-27T07:02:52;2.47;;;2.15;;
59974;SDS011;62136;-35.664;-63.766;2022-09-27T07:05:20;2.17;;;1.90;;
59974;SDS011;62136;-35.664;-63.766;2022-09-27T07:07:47;1.77;;;1.50;;
59974;SDS011;62136;-35.664;-63.766;2022-09-27T07:10:18;1.92;;;1.83;;
59974;SDS011;62136;-35.664;-63.766;2022-09-27T07:12:45;1.55;;;1.45;;
59974;SDS011;62136;-35.664;-63.766;2022-09-27T07:15:15;1.73;;;1.45;;
59974;SDS011;62136;-35.664;-63.766;2022-09-27T07:17:42;2.00;;;1.70;;
59974;SDS011;62136;-35.664;-63.766;2022-09-27T07:20:09;1.50;;;1.40;;
59974;SDS011;62136;-35.664;-63.766;2022-09-27T07:22:39;1.88;;;1.77;;
59974;SDS011;62136;-35.664;-63.766;2022-09-27T07:25:10;1.90;;;1.63;;
59974;SDS011;62136;-35.664;-63.766;2022-09-27T07:27:37;1.90;;;1.80;;
59974;SDS011;62136;-35.664;-63.766;2022-09-27T07:30:08;1.58;;;1.48;;
59974;SDS011;62136;-35.664;-63.766;2022-09-27T07:32:36;1.50;;;1.35;;
59974;SDS011;62136;-35.664;-63.766;2022-09-27T07:35:04;1.95;;;1.50;;
59974;SDS011;62136;-35.664;-63.766;2022-09-27T07:37:32;1.48;;;1.38;;
59974;SDS011;62136;-35.664;-63.766;2022-09-27T07:40:01;1.75;;;1.50;;
59974;SDS011;62136;-35.664;-63.766;2022-09-27T07:42:31;1.33;;;1.23;;
59974;SDS011;62136;-35.664;-63.766;2022-09-27T07:44:59;1.33;;;1.23;;
59974;SDS011;62136;-35.664;-63.766;2022-09-27T07:47:26;1.52;;;1.42;;
59974;SDS011;62136;-35.664;-63.766;2022-09-27T07:49:53;1.50;;;1.40;;
59974;SDS011;62136;-35.664;-63.766;2022-09-27T07:52:20;1.45;;;1.35;;
59974;SDS011;62136;-35.664;-63.766;2022-09-27T07:54:47;1.50;;;1.40;;
59974;SDS011;62136;-35.664;-63.766;2022-09-27T07:57:15;1.50;;;1.40;;
59974;SDS011;62136;-35.664;-63.766;2022-09-27T07:59:42;1.73;;;1.63;;
59974;SDS011;62136;-35.664;-63.766;2022-09-27T08:02:13;1.52;;;1.40;;
59974;SDS011;62136;-35.664;-63.766;2022-09-27T08:04:41;1.70;;;1.50;;
59974;SDS011;62136;-35.664;-63.766;2022-09-27T08:07:09;1.65;;;1.50;;
59974;SDS011;62136;-35.664;-63.766;2022-09-27T08:09:36;1.40;;;1.30;;
59974;SDS011;62136;-35.664;-63.766;2022-09-27T08:12:03;1.42;;;1.33;;
59974;SDS011;62136;-35.664;-63.766;2022-09-27T08:14:30;1.63;;;1.52;;
59974;SDS011;62136;-35.664;-63.766;2022-09-27T08:16:57;1.42;;;1.30;;
59974;SDS011;62136;-35.664;-63.766;2022-09-27T08:19:24;1.38;;;1.27;;
59974;SDS011;62136;-35.664;-63.766;2022-09-27T08:21:51;1.55;;;1.45;;
59974;SDS011;62136;-35.664;-63.766;2022-09-27T08:24:21;1.23;;;1.15;;
59974;SDS011;62136;-35.664;-63.766;2022-09-27T08:26:48;1.60;;;1.50;;
59974;SDS011;62136;-35.664;-63.766;2022-09-27T08:29:15;1.30;;;1.20;;
59974;SDS011;62136;-35.664;-63.766;2022-09-27T08:31:42;1.52;;;1.30;;
59974;SDS011;62136;-35.664;-63.766;2022-09-27T08:34:09;1.38;;;1.27;;
59974;SDS011;62136;-35.664;-63.766;2022-09-27T08:36:37;1.48;;;1.30;;
59974;SDS011;62136;-35.664;-63.766;2022-09-27T08:39:04;1.10;;;1.00;;
59974;SDS011;62136;-35.664;-63.766;2022-09-27T08:44:21;1.90;;;1.50;;
59974;SDS011;62136;-35.664;-63.766;2022-09-27T08:52:39;1.40;;;1.30;;
59974;SDS011;62136;-35.664;-63.766;2022-09-27T08:55:54;1.30;;;1.20;;
59974;SDS011;62136;-35.664;-63.766;2022-09-27T09:00:51;1.52;;;1.15;;
59974;SDS011;62136;-35.664;-63.766;2022-09-27T09:03:21;1.60;;;1.40;;
59974;SDS011;62136;-35.664;-63.766;2022-09-27T09:06:10;1.75;;;1.30;;
59974;SDS011;62136;-35.664;-63.766;2022-09-27T09:09:10;3.42;;;1.48;;
59974;SDS011;62136;-35.664;-63.766;2022-09-27T09:25:27;1.38;;;1.27;;
59974;SDS011;62136;-35.664;-63.766;2022-09-27T09:30:48;1.30;;;1.20;;
59974;SDS011;62136;-35.664;-63.766;2022-09-27T09:33:45;1.35;;;1.25;;
59974;SDS011;62136;-35.664;-63.766;2022-09-27T09:36:22;1.45;;;1.27;;
59974;SDS011;62136;-35.664;-63.766;2022-09-27T09:39:04;1.52;;;1.40;;
59974;SDS011;62136;-35.664;-63.766;2022-09-27T09:42:03;1.50;;;1.40;;
59974;SDS011;62136;-35.664;-63.766;2022-09-27T09:50:17;1.50;;;1.20;;
59974;SDS011;62136;-35.664;-63.766;2022-09-27T09:52:48;1.17;;;1.08;;
59974;SDS011;62136;-35.664;-63.766;2022-09-27T09:55:22;1.20;;;1.13;;
59974;SDS011;62136;-35.664;-63.766;2022-09-27T10:00:42;1.27;;;1.13;;
59974;SDS011;62136;-35.664;-63.766;2022-09-27T10:03:21;1.52;;;1.10;;
59974;SDS011;62136;-35.664;-63.766;2022-09-27T10:06:00;1.45;;;1.35;;
59974;SDS011;62136;-35.664;-63.766;2022-09-27T10:08:27;2.05;;;1.30;;
59974;SDS011;62136;-35.664;-63.766;2022-09-27T10:10:54;1.63;;;1.20;;
59974;SDS011;62136;-35.664;-63.766;2022-09-27T10:13:21;1.60;;;1.20;;
59974;SDS011;62136;-35.664;-63.766;2022-09-27T10:16:02;1.60;;;1.50;;
59974;SDS011;62136;-35.664;-63.766;2022-09-27T10:18:33;1.38;;;1.20;;
59974;SDS011;62136;-35.664;-63.766;2022-09-27T10:21:22;1.27;;;1.05;;
59974;SDS011;62136;-35.664;-63.766;2022-09-27T10:24:11;1.10;;;1.08;;
59974;SDS011;62136;-35.664;-63.766;2022-09-27T10:26:44;1.30;;;1.20;;
59974;SDS011;62136;-35.664;-63.766;2022-09-27T10:29:23;1.40;;;1.30;;
59974;SDS011;62136;-35.664;-63.766;2022-09-27T10:31:53;1.52;;;1.40;;
59974;SDS011;62136;-35.664;-63.766;2022-09-27T10:39:48;1.38;;;0.93;;
59974;SDS011;62136;-35.664;-63.766;2022-09-27T10:42:21;0.90;;;0.90;;
59974;SDS011;62136;-35.664;-63.766;2022-09-27T10:44:57;1.00;;;1.00;;
59974;SDS011;62136;-35.664;-63.766;2022-09-27T10:47:43;1.10;;;1.00;;
59974;SDS011;62136;-35.664;-63.766;2022-09-27T10:50:15;2.15;;;1.20;;
59974;SDS011;62136;-35.664;-63.766;2022-09-27T10:53:01;1.20;;;1.10;;
59974;SDS011;62136;-35.664;-63.766;2022-09-27T10:55:31;1.10;;;1.00;;
59974;SDS011;62136;-35.664;-63.766;2022-09-27T10:58:02;1.65;;;1.20;;
59974;SDS011;62136;-35.664;-63.766;2022-09-27T11:00:31;1.15;;;0.95;;
59974;SDS011;62136;-35.664;-63.766;2022-09-27T11:03:04;1.00;;;1.00;;
59974;SDS011;62136;-35.664;-63.766;2022-09-27T11:05:39;1.55;;;1.08;;
59974;SDS011;62136;-35.664;-63.766;2022-09-27T11:13:33;0.90;;;0.90;;
59974;SDS011;62136;-35.664;-63.766;2022-09-27T11:43:42;2.30;;;1.02;;
59974;SDS011;62136;-35.664;-63.766;2022-09-27T11:51:57;1.38;;;1.10;;
59974;SDS011;62136;-35.664;-63.766;2022-09-27T12:04:25;1.83;;;1.30;;
59974;SDS011;62136;-35.664;-63.766;2022-09-27T12:09:59;1.77;;;1.17;;
59974;SDS011;62136;-35.664;-63.766;2022-09-27T12:12:34;2.78;;;1.20;;
59974;SDS011;62136;-35.664;-63.766;2022-09-27T12:15:05;5.15;;;1.75;;
59974;SDS011;62136;-35.664;-63.766;2022-09-27T12:17:45;5.40;;;1.70;;
59974;SDS011;62136;-35.664;-63.766;2022-09-27T12:20:22;3.45;;;1.67;;
59974;SDS011;62136;-35.664;-63.766;2022-09-27T12:23:12;2.13;;;1.63;;
59974;SDS011;62136;-35.664;-63.766;2022-09-27T12:25:47;1.83;;;1.58;;
59974;SDS011;62136;-35.664;-63.766;2022-09-27T12:30:53;4.93;;;2.33;;
59974;SDS011;62136;-35.664;-63.766;2022-09-27T12:36:03;3.90;;;1.37;;
59974;SDS011;62136;-35.664;-63.766;2022-09-27T12:38:45;4.25;;;1.50;;
59974;SDS011;62136;-35.664;-63.766;2022-09-27T12:41:17;4.20;;;1.45;;
59974;SDS011;62136;-35.664;-63.766;2022-09-27T12:43:47;4.85;;;1.33;;
59974;SDS011;62136;-35.664;-63.766;2022-09-27T12:52:15;3.63;;;1.30;;
59974;SDS011;62136;-35.664;-63.766;2022-09-27T12:58:29;3.63;;;1.10;;
59974;SDS011;62136;-35.664;-63.766;2022-09-27T13:01:23;3.17;;;1.23;;
59974;SDS011;62136;-35.664;-63.766;2022-09-27T13:04:27;2.78;;;1.00;;
59974;SDS011;62136;-35.664;-63.766;2022-09-27T13:12:25;3.10;;;1.00;;
59974;SDS011;62136;-35.664;-63.766;2022-09-27T13:17:31;2.25;;;0.88;;
59974;SDS011;62136;-35.664;-63.766;2022-09-27T13:22:57;0.70;;;0.70;;
59974;SDS011;62136;-35.664;-63.766;2022-09-27T13:36:28;2.10;;;0.90;;
59974;SDS011;62136;-35.664;-63.766;2022-09-27T13:46:55;1.67;;;0.88;;
59974;SDS011;62136;-35.664;-63.766;2022-09-27T13:49:41;1.98;;;0.85;;
59974;SDS011;62136;-35.664;-63.766;2022-09-27T13:52:23;0.88;;;0.80;;
59974;SDS011;62136;-35.664;-63.766;2022-09-27T13:54:53;1.17;;;0.80;;
59974;SDS011;62136;-35.664;-63.766;2022-09-27T14:00:07;0.98;;;0.90;;
59974;SDS011;62136;-35.664;-63.766;2022-09-27T14:02:54;1.67;;;0.82;;
59974;SDS011;62136;-35.664;-63.766;2022-09-27T14:06:30;1.23;;;1.05;;
59974;SDS011;62136;-35.664;-63.766;2022-09-27T14:08:31;1.08;;;0.90;;
59974;SDS011;62136;-35.664;-63.766;2022-09-27T14:11:09;0.80;;;0.80;;
59974;SDS011;62136;-35.664;-63.766;2022-09-27T14:13:43;0.60;;;0.60;;
59974;SDS011;62136;-35.664;-63.766;2022-09-27T14:16:14;2.65;;;0.98;;
59974;SDS011;62136;-35.664;-63.766;2022-09-27T14:19:03;1.27;;;0.80;;
59974;SDS011;62136;-35.664;-63.766;2022-09-27T14:21:35;0.88;;;0.88;;
59974;SDS011;62136;-35.664;-63.766;2022-09-27T14:29:57;1.77;;;0.90;;
59974;SDS011;62136;-35.664;-63.766;2022-09-27T14:32:27;1.50;;;1.17;;
59974;SDS011;62136;-35.664;-63.766;2022-09-27T14:37:59;1.70;;;0.63;;
59974;SDS011;62136;-35.664;-63.766;2022-09-27T14:40:38;2.17;;;0.93;;
59974;SDS011;62136;-35.664;-63.766;2022-09-27T14:43:30;3.33;;;1.35;;
59974;SDS011;62136;-35.664;-63.766;2022-09-27T14:46:03;3.20;;;1.10;;
59974;SDS011;62136;-35.664;-63.766;2022-09-27T14:48:43;2.15;;;1.15;;
59974;SDS011;62136;-35.664;-63.766;2022-09-27T14:51:19;2.08;;;1.15;;
59974;SDS011;62136;-35.664;-63.766;2022-09-27T14:53:59;3.65;;;1.13;;
59974;SDS011;62136;-35.664;-63.766;2022-09-27T14:56:33;2.47;;;1.40;;
59974;SDS011;62136;-35.664;-63.766;2022-09-27T15:01:57;1.73;;;1.40;;
59974;SDS011;62136;-35.664;-63.766;2022-09-27T15:04:26;2.78;;;1.50;;
59974;SDS011;62136;-35.664;-63.766;2022-09-27T15:06:59;1.88;;;1.13;;
59974;SDS011;62136;-35.664;-63.766;2022-09-27T15:09:29;1.65;;;1.10;;
59974;SDS011;62136;-35.664;-63.766;2022-09-27T15:12:00;1.77;;;1.20;;
59974;SDS011;62136;-35.664;-63.766;2022-09-27T15:14:30;1.85;;;1.10;;
59974;SDS011;62136;-35.664;-63.766;2022-09-27T15:17:02;2.30;;;1.30;;
59974;SDS011;62136;-35.664;-63.766;2022-09-27T15:19:31;2.05;;;1.23;;
59974;SDS011;62136;-35.664;-63.766;2022-09-27T15:24:48;2.00;;;1.10;;
59974;SDS011;62136;-35.664;-63.766;2022-09-27T15:27:17;1.90;;;0.93;;
59974;SDS011;62136;-35.664;-63.766;2022-09-27T15:29:55;3.47;;;1.23;;
59974;SDS011;62136;-35.664;-63.766;2022-09-27T15:32:28;2.97;;;1.23;;
59974;SDS011;62136;-35.664;-63.766;2022-09-27T15:35:04;2.53;;;1.23;;
59974;SDS011;62136;-35.664;-63.766;2022-09-27T15:37:36;4.65;;;1.30;;
59974;SDS011;62136;-35.664;-63.766;2022-09-27T15:42:53;4.40;;;1.30;;
59974;SDS011;62136;-35.664;-63.766;2022-09-27T15:45:28;4.63;;;1.27;;
59974;SDS011;62136;-35.664;-63.766;2022-09-27T15:48:18;5.70;;;1.30;;
59974;SDS011;62136;-35.664;-63.766;2022-09-27T15:50:53;4.25;;;1.40;;
59974;SDS011;62136;-35.664;-63.766;2022-09-27T15:56:11;3.38;;;1.42;;
59974;SDS011;62136;-35.664;-63.766;2022-09-27T16:01:17;3.75;;;1.10;;
59974;SDS011;62136;-35.664;-63.766;2022-09-27T16:03:46;5.93;;;1.25;;
59974;SDS011;62136;-35.664;-63.766;2022-09-27T16:06:15;2.22;;;1.05;;
59974;SDS011;62136;-35.664;-63.766;2022-09-27T16:08:43;2.55;;;1.00;;
59974;SDS011;62136;-35.664;-63.766;2022-09-27T16:11:18;3.88;;;1.20;;
59974;SDS011;62136;-35.664;-63.766;2022-09-27T16:13:58;3.08;;;1.13;;
59974;SDS011;62136;-35.664;-63.766;2022-09-27T16:16:28;1.58;;;1.10;;
59974;SDS011;62136;-35.664;-63.766;2022-09-27T16:19:11;1.73;;;1.35;;
59974;SDS011;62136;-35.664;-63.766;2022-09-27T16:21:43;2.70;;;1.25;;
59974;SDS011;62136;-35.664;-63.766;2022-09-27T16:24:17;2.95;;;0.95;;
59974;SDS011;62136;-35.664;-63.766;2022-09-27T16:26:47;2.60;;;1.00;;
59974;SDS011;62136;-35.664;-63.766;2022-09-27T16:29:15;1.27;;;0.80;;
59974;SDS011;62136;-35.664;-63.766;2022-09-27T16:31:45;2.22;;;0.82;;
59974;SDS011;62136;-35.664;-63.766;2022-09-27T16:34:19;2.88;;;0.88;;
59974;SDS011;62136;-35.664;-63.766;2022-09-27T17:00:07;4.38;;;3.97;;
59974;SDS011;62136;-35.664;-63.766;2022-09-27T17:02:39;5.22;;;3.90;;
59974;SDS011;62136;-35.664;-63.766;2022-09-27T17:05:11;5.28;;;4.07;;
59974;SDS011;62136;-35.664;-63.766;2022-09-27T17:07:39;5.85;;;3.85;;
59974;SDS011;62136;-35.664;-63.766;2022-09-27T17:10:07;7.35;;;3.92;;
59974;SDS011;62136;-35.664;-63.766;2022-09-27T17:12:37;8.00;;;3.97;;
59974;SDS011;62136;-35.664;-63.766;2022-09-27T17:15:06;6.53;;;4.03;;
59974;SDS011;62136;-35.664;-63.766;2022-09-27T17:17:37;7.70;;;4.00;;
59974;SDS011;62136;-35.664;-63.766;2022-09-27T17:20:05;7.35;;;3.42;;
59974;SDS011;62136;-35.664;-63.766;2022-09-27T17:22:33;11.07;;;4.50;;
59974;SDS011;62136;-35.664;-63.766;2022-09-27T17:25:01;9.00;;;4.05;;
59974;SDS011;62136;-35.664;-63.766;2022-09-27T17:27:28;7.20;;;3.45;;
59974;SDS011;62136;-35.664;-63.766;2022-09-27T17:29:58;6.00;;;3.22;;
59974;SDS011;62136;-35.664;-63.766;2022-09-27T17:32:25;8.02;;;3.40;;
59974;SDS011;62136;-35.664;-63.766;2022-09-27T17:34:55;8.93;;;2.97;;
59974;SDS011;62136;-35.664;-63.766;2022-09-27T17:37:25;9.65;;;2.70;;
59974;SDS011;62136;-35.664;-63.766;2022-09-27T17:39:52;6.03;;;2.70;;
59974;SDS011;62136;-35.664;-63.766;2022-09-27T17:42:20;11.98;;;3.00;;
59974;SDS011;62136;-35.664;-63.766;2022-09-27T17:44:49;6.13;;;2.72;;
59974;SDS011;62136;-35.664;-63.766;2022-09-27T17:47:16;6.35;;;2.65;;
59974;SDS011;62136;-35.664;-63.766;2022-09-27T17:50:02;7.18;;;2.65;;
59974;SDS011;62136;-35.664;-63.766;2022-09-27T17:52:47;7.05;;;2.40;;
59974;SDS011;62136;-35.664;-63.766;2022-09-27T17:55:17;6.38;;;2.53;;
59974;SDS011;62136;-35.664;-63.766;2022-09-27T17:57:47;5.40;;;2.45;;
59974;SDS011;62136;-35.664;-63.766;2022-09-27T18:00:16;7.15;;;2.22;;
59974;SDS011;62136;-35.664;-63.766;2022-09-27T18:02:45;4.93;;;2.10;;
59974;SDS011;62136;-35.664;-63.766;2022-09-27T18:05:12;4.15;;;2.30;;
59974;SDS011;62136;-35.664;-63.766;2022-09-27T18:07:42;4.47;;;2.00;;
59974;SDS011;62136;-35.664;-63.766;2022-09-27T18:10:14;7.82;;;2.22;;
59974;SDS011;62136;-35.664;-63.766;2022-09-27T18:12:44;7.93;;;2.05;;
59974;SDS011;62136;-35.664;-63.766;2022-09-27T18:15:16;4.88;;;2.40;;
59974;SDS011;62136;-35.664;-63.766;2022-09-27T18:17:44;5.80;;;2.15;;
59974;SDS011;62136;-35.664;-63.766;2022-09-27T18:20:16;6.68;;;1.90;;
59974;SDS011;62136;-35.664;-63.766;2022-09-27T18:22:44;4.97;;;2.17;;
59974;SDS011;62136;-35.664;-63.766;2022-09-27T18:25:12;4.00;;;1.80;;
59974;SDS011;62136;-35.664;-63.766;2022-09-27T18:27:41;3.03;;;1.90;;